CheckWX is a tool to help pilots better visualize weather data.  It is not intended as a substitute for an official pre-flight weather briefing.

22:32:19 UTC

LTAG TAF
İncirlik Air Base Airport
Adana, Turkey
TAF LTAG 072240Z 0800/0824 VRB02KT 9999 BKN030 TEMPO 0805/0809 -SHRA TEMPO 0809/0813 19013KT -TSRA FEW025CB BKN030 TEMPO 0813/0817 19013KT -TSRA FEW025CB BKN030 TEMPO 0813/0817 -TSRA FEW025CB BKN030

Apr-8@
00:00 UTC

Apr-8 @ 00:00 UTC

Apr-9@
00:00 UTC

Apr-9 @ 00:00 UTC

TAF LTAG 072240Z 0800/0824 VRB02KT 9999 BKN030
Wind
  • Variable at 2 KTS
Cloud Levels
  • Broken at 3,000' AGL

Apr-8@
05:00 UTC

Apr-8 @ 05:00 UTC

Apr-8@
09:00 UTC

Apr-8 @ 09:00 UTC

TEMPO 0805/0809 -SHRA

Expired

Conditions
Light Showers, Rain
Cloud Levels

Apr-8@
09:00 UTC

Apr-8 @ 09:00 UTC

Apr-8@
13:00 UTC

Apr-8 @ 13:00 UTC

TEMPO 0809/0813 19013KT -TSRA FEW025CB BKN030

Expired

Wind
  • 190° at 13 KTS
Conditions
Light Thunderstorm, Rain
Cloud Levels
  • Few at 2,500' AGL
  • Broken at 3,000' AGL

Apr-8@
13:00 UTC

Apr-8 @ 13:00 UTC

Apr-8@
17:00 UTC

Apr-8 @ 17:00 UTC

TEMPO 0813/0817 -TSRA FEW025CB BKN030

Expired

Conditions
Light Thunderstorm, Rain
Cloud Levels
  • Few at 2,500' AGL
  • Broken at 3,000' AGL

Apr-8@
13:00 UTC

Apr-8 @ 13:00 UTC

Apr-8@
17:00 UTC

Apr-8 @ 17:00 UTC

TEMPO 0813/0817 -TSRA FEW025CB BKN030

Expired

Wind
  • 190° at 13 KTS
Conditions
Light Thunderstorm, Rain
Cloud Levels
  • Few at 2,500' AGL
  • Broken at 3,000' AGL